ADDS METAR Data INFO
IDs: Format: Raw Decoded Include TAF

Data at: 0900 UTC 20 Oct 2017

KHYS 200856Z AUTO 18014KT 10SM CLR 15/09 A2992 RMK AO2 SLP119 T01500089 56016
KHYS 200756Z AUTO 17013KT 10SM CLR 16/09 A2994 RMK AO2 SLP124 T01560089
KHYS 200656Z AUTO 17014KT 10SM CLR 16/09 A2995 RMK AO2 SLP129 T01560089
KHYS 200556Z AUTO 17010KT 10SM CLR 16/09 A2997 RMK AO2 SLP139 T01560089 10206 20156 402830044 58000
KHYS 200456Z AUTO 18012KT 10SM CLR 17/09 A2998 RMK AO2 SLP143 T01670089
KHYS 200356Z AUTO 17010KT 10SM CLR 16/09 A2998 RMK AO2 SLP146 T01610089
KHYS 200256Z AUTO 17012KT 10SM CLR 17/08 A2997 RMK AO2 SLP146 T01720083 51002
KHYS 200156Z AUTO 15009KT 10SM CLR 17/08 A2997 RMK AO2 SLP148 T01670083
KHYS 200056Z AUTO 15008KT 10SM CLR 18/08 A2997 RMK AO2 SLP150 T01830078
KHYS 192356Z AUTO 16010KT 10SM CLR 21/08 A2997 RMK AO2 SLP146 T02060078 10283 20206 53002
KHYS 192256Z AUTO 16015KT 10SM CLR 26/07 A2996 RMK AO2 SLP138 T02560067
KHYS 192156Z AUTO 17014KT 10SM CLR 28/06 A2996 RMK AO2 SLP136 T02780061
KHYS 191956Z AUTO 16014G20KT 10SM CLR 27/09 A2998 RMK AO2 SLP144 T02720089
KHYS 191856Z AUTO 14016KT 10SM CLR 27/09 A3001 RMK AO2 SLP154 T02670094
KHYS 191756Z AUTO 14008KT 10SM CLR 24/11 A3004 RMK AO2 SLP166 T02440106 10244 20044 58010
KHYS 191656Z AUTO 17006KT 10SM CLR 21/09 A3006 RMK AO2 SLP173 T02110089
KHYS 191556Z AUTO 20006KT 10SM CLR 18/08 A3007 RMK AO2 SLP180 T01830083
KHYS 191456Z AUTO 00000KT 10SM CLR 12/06 A3008 RMK AO2 SLP185 T01220061 53008
KHYS 191356Z AUTO 00000KT 10SM CLR 08/04 A3007 RMK AO2 SLP183 T00780044
KHYS 191256Z AUTO 32004KT 10SM CLR 05/03 A3005 RMK AO2 SLP177 T00500028
KHYS 191156Z AUTO 31004KT 10SM CLR 05/03 A3005 RMK AO2 SLP174 T00500028 10100 20044 50002
KHYS 191056Z AUTO 29003KT 10SM CLR 06/03 A3006 RMK AO2 SLP173 T00560033
KHYS 190956Z AUTO 34005KT 10SM CLR 06/03 A3004 RMK AO2 SLP166 T00610033
KHYS 190856Z AUTO 33005KT 10SM CLR 07/03 A3004 RMK AO2 SLP165 T00670033 58004
KHYS 190756Z AUTO 31005KT 10SM CLR 08/04 A3005 RMK AO2 SLP169 T00780039
KHYS 190656Z AUTO 31005KT 10SM CLR 08/04 A3005 RMK AO2 SLP168 T00780039
KHYS 190556Z AUTO 34006KT 10SM CLR 09/04 A3006 RMK AO2 SLP171 T00940044 10217 20072 402940039 58001
KHYS 190456Z AUTO 34004KT 10SM CLR 12/04 A3006 RMK AO2 SLP176 T01170039
KHYS 190356Z AUTO 36010KT 10SM CLR 11/04 A3006 RMK AO2 SLP177 T01110044
KHYS 190256Z AUTO 35008KT 10SM CLR 11/04 A3006 RMK AO2 SLP179 T01110044 51020
KHYS 190156Z AUTO 17004KT 10SM CLR 14/04 A3005 RMK AO2 SLP177 T01440039
KHYS 190056Z AUTO 03007KT 10SM CLR 17/04 A3002 RMK AO2 SLP169 T01720039
KHYS 182356Z AUTO 03006KT 10SM CLR 22/03 A3000 RMK AO2 SLP156 T02170033 10294 20217 53014
KHYS 182256Z AUTO 04008KT 10SM CLR 26/04 A2998 RMK AO2 SLP146 T02560039
KHYS 182156Z AUTO 35008KT 10SM CLR 28/01 A2996 RMK AO2 SLP137 T02830011